Time;durP1;ratioP1;P1;durP2;ratioP2;P2;SDS_P1;SDS_P2;PMS_P1;PMS_P2;Temp;Humidity;BMP_temperature;BMP_pressure;BME280_temperature;BME280_humidity;BME280_pressure;Samples;Min_cycle;Max_cycle;Signal;HPM_P1;HPM_P2
2021/11/04 00:00:39;;;;;;;42.48;26.75;;;;;;;7.15;100.00;99235.38;1766751;80;21008;-62
2021/11/04 00:03:08;;;;;;;35.83;23.35;;;;;;;7.19;100.00;99237.59;1774194;79;21546;-62
2021/11/04 00:05:36;;;;;;;40.43;22.32;;;;;;;7.24;100.00;99239.83;1773481;80;21080;-62
2021/11/04 00:08:07;;;;;;;35.63;23.95;;;;;;;7.26;100.00;99239.41;1765536;81;21592;-62
2021/11/04 00:10:36;;;;;;;38.67;24.45;;;;;;;7.29;100.00;99234.18;1765299;80;20960;-62
2021/11/04 00:13:05;;;;;;;33.02;23.27;;;;;;;7.31;100.00;99239.00;1723912;80;21510;-62
2021/11/04 00:15:39;;;;;;;38.15;23.50;;;;;;;7.33;100.00;99238.59;1722360;80;21537;-62
2021/11/04 00:18:10;;;;;;;34.03;23.50;;;;;;;7.36;100.00;99239.05;1745588;80;21905;-62
2021/11/04 00:20:42;;;;;;;34.83;23.77;;;;;;;7.39;100.00;99235.12;1745436;80;21379;-62
2021/11/04 00:23:11;;;;;;;41.00;27.00;;;;;;;7.40;100.00;99231.20;1717305;81;21541;-61
2021/11/04 00:25:42;;;;;;;59.88;33.10;;;;;;;7.42;100.00;99232.53;1736118;80;21518;-61
2021/11/04 00:28:12;;;;;;;95.45;53.75;;;;;;;7.42;100.00;99232.53;1745478;80;20983;-61
2021/11/04 00:30:42;;;;;;;100.75;59.23;;;;;;;7.40;100.00;99236.45;1744900;80;21052;-61
2021/11/04 00:33:11;;;;;;;119.77;67.42;;;;;;;7.41;100.00;99239.95;1745365;80;20998;-61
2021/11/04 00:35:41;;;;;;;98.90;57.95;;;;;;;7.40;100.00;99235.14;1743242;80;21530;-61
2021/11/04 00:38:10;;;;;;;104.55;60.45;;;;;;;7.41;100.00;99228.15;1745571;80;20967;-60
2021/11/04 00:40:41;;;;;;;90.22;53.17;;;;;;;7.44;100.00;99230.36;1704347;82;21589;-61
2021/11/04 00:43:11;;;;;;;75.85;44.20;;;;;;;7.44;100.00;99231.67;1669664;84;21115;-60
2021/11/04 00:45:40;;;;;;;134.22;70.42;;;;;;;7.43;100.00;99222.48;1725146;81;21679;-60
2021/11/04 00:48:16;;;;;;;196.65;103.50;;;;;;;7.41;100.00;99218.53;1723550;81;21462;-61
2021/11/04 00:50:45;;;;;;;188.25;97.60;;;;;;;7.40;100.00;99216.77;1722921;81;21541;-61
2021/11/04 00:53:17;;;;;;;116.03;62.83;;;;;;;7.41;100.00;99211.09;1725769;81;21537;-61
2021/11/04 00:55:45;;;;;;;85.05;46.45;;;;;;;7.41;100.00;99217.22;1729525;80;21188;-61
2021/11/04 00:58:15;;;;;;;99.70;52.88;;;;;;;7.43;100.00;99218.54;1753366;80;21003;-61
2021/11/04 01:00:44;;;;;;;73.37;43.05;;;;;;;7.43;100.00;99216.80;1732945;81;21050;-61
2021/11/04 01:03:13;;;;;;;55.03;35.52;;;;;;;7.43;100.00;99224.67;1723660;81;21077;-61
2021/11/04 01:05:43;;;;;;;42.93;30.82;;;;;;;7.42;100.00;99228.16;1725383;81;21596;-61
2021/11/04 01:08:12;;;;;;;39.03;27.40;;;;;;;7.43;100.00;99237.80;1722217;81;21127;-62
2021/11/04 01:10:41;;;;;;;38.75;26.82;;;;;;;7.47;100.00;99244.82;1722444;81;20979;-62
2021/11/04 01:13:10;;;;;;;39.48;26.70;;;;;;;7.50;100.00;99230.84;1713355;81;21427;-62
2021/11/04 01:15:40;;;;;;;39.03;26.85;;;;;;;7.51;100.00;99228.23;1703506;83;20976;-62
2021/11/04 01:18:09;;;;;;;37.58;26.23;;;;;;;7.52;100.00;99236.98;1718374;81;21469;-62
2021/11/04 01:20:38;;;;;;;36.77;25.25;;;;;;;7.54;100.00;99244.00;1717025;81;21118;-62
2021/11/04 01:23:07;;;;;;;38.28;25.68;;;;;;;7.57;100.00;99233.98;1723803;81;21486;-62
2021/11/04 01:25:36;;;;;;;38.55;25.77;;;;;;;7.58;100.00;99233.12;1726773;83;21837;-62
2021/11/04 01:28:08;;;;;;;36.25;26.33;;;;;;;7.61;100.00;99238.39;1727621;83;21000;-63
2021/11/04 01:30:38;;;;;;;41.05;27.25;;;;;;;7.65;100.00;99244.11;1723390;83;21003;-62
2021/11/04 01:33:06;;;;;;;37.80;27.20;;;;;;;7.64;100.00;99252.84;1724062;81;21126;-62
2021/11/04 01:35:36;;;;;;;39.73;29.25;;;;;;;7.64;100.00;99255.91;1725344;81;20951;-62
2021/11/04 01:38:06;;;;;;;39.27;27.73;;;;;;;7.62;100.00;99253.27;1716356;82;20963;-62
2021/11/04 01:40:35;;;;;;;44.05;29.25;;;;;;;7.64;100.00;99262.47;1716376;82;20864;-62
2021/11/04 01:43:05;;;;;;;41.85;30.25;;;;;;;7.66;100.00;99252.86;1722625;81;21487;-62
2021/11/04 01:45:34;;;;;;;41.40;30.62;;;;;;;7.68;100.00;99261.63;1720116;82;21611;-62
2021/11/04 01:48:02;;;;;;;44.27;31.30;;;;;;;7.69;100.00;99266.89;1719545;82;21447;-62
2021/11/04 01:50:31;;;;;;;47.15;31.77;;;;;;;7.72;100.00;99283.09;1716380;82;21474;-62
2021/11/04 01:53:00;;;;;;;41.30;30.17;;;;;;;7.72;100.00;99279.16;1710904;83;21459;-62
2021/11/04 01:55:28;;;;;;;42.13;30.45;;;;;;;7.72;100.00;99278.73;1719477;83;20900;-62
2021/11/04 01:57:58;;;;;;;43.40;31.00;;;;;;;7.75;100.00;99275.25;1719894;82;21069;-62
2021/11/04 02:00:29;;;;;;;45.48;33.18;;;;;;;7.76;100.00;99272.62;1725916;83;20985;-62
2021/11/04 02:03:21;;;;;;;41.77;32.17;;;;;;;7.76;100.00;99277.87;1727332;81;21458;-63
2021/11/04 02:06:09;;;;;;;50.60;33.55;;;;;;;7.76;100.00;99288.81;1733928;80;21007;-62
2021/11/04 02:08:58;;;;;;;50.45;33.70;;;;;;;7.72;100.00;99297.11;1729238;83;21424;-62
2021/11/04 02:11:41;;;;;;;47.75;31.33;;;;;;;7.69;100.00;99308.02;1694575;83;21444;-62
2021/11/04 02:14:25;;;;;;;43.87;30.82;;;;;;;7.65;100.00;99300.55;1718071;83;21444;-62
2021/11/04 02:16:53;;;;;;;47.35;32.83;;;;;;;7.65;100.00;99316.30;1719606;82;21560;-62
2021/11/04 02:19:51;;;;;;;47.78;32.15;;;;;;;7.64;100.00;99316.30;1689013;82;21493;-62
2021/11/04 02:22:37;;;;;;;49.15;33.78;;;;;;;7.60;100.00;99317.14;1720398;81;21099;-62
2021/11/04 02:25:27;;;;;;;48.78;33.83;;;;;;;7.55;100.00;99314.44;1719831;83;21423;-62
2021/11/04 02:28:01;;;;;;;44.00;31.20;;;;;;;7.52;100.00;99319.66;1717845;81;20881;-62
2021/11/04 02:30:30;;;;;;;41.70;30.72;;;;;;;7.50;100.00;99313.09;1723824;81;21458;-62
2021/11/04 02:32:59;;;;;;;46.15;33.00;;;;;;;7.49;100.00;99318.33;1706456;82;21808;-61
2021/11/04 02:35:30;;;;;;;43.33;32.08;;;;;;;7.48;100.00;99317.88;1692358;83;21467;-62
2021/11/04 02:37:58;;;;;;;44.98;32.28;;;;;;;7.47;100.00;99318.31;1792180;78;21083;-62
2021/11/04 02:40:26;;;;;;;50.25;32.85;;;;;;;7.46;100.00;99321.80;1775648;79;21423;-62
2021/11/04 02:42:54;;;;;;;40.52;29.60;;;;;;;7.45;100.00;99316.11;1773662;80;20968;-62
2021/11/04 02:45:25;;;;;;;40.12;28.55;;;;;;;7.45;100.00;99313.48;1773124;79;20980;-61
2021/11/04 02:47:55;;;;;;;39.75;30.57;;;;;;;7.47;100.00;99300.37;1769545;80;21514;-62
2021/11/04 02:50:24;;;;;;;38.67;29.82;;;;;;;7.48;100.00;99307.37;1776259;79;21458;-62
2021/11/04 02:52:56;;;;;;;39.10;28.75;;;;;;;7.49;100.00;99310.45;1773622;79;21511;-62
2021/11/04 02:55:35;;;;;;;40.78;28.45;;;;;;;7.50;100.00;99305.65;1774358;79;21525;-62
2021/11/04 02:58:09;;;;;;;36.00;26.17;;;;;;;7.50;100.00;99293.41;1769368;79;20884;-62
2021/11/04 03:00:42;;;;;;;35.23;24.72;;;;;;;7.52;100.00;99305.23;1763341;80;20985;-62
2021/11/04 03:03:11;;;;;;;31.55;24.47;;;;;;;7.56;100.00;99306.58;1772164;79;21443;-62
2021/11/04 03:05:40;;;;;;;31.60;23.80;;;;;;;7.56;100.00;99302.64;1757502;79;20837;-62
2021/11/04 03:08:09;;;;;;;29.32;22.80;;;;;;;7.54;100.00;99298.24;1768466;79;21474;-62
2021/11/04 03:10:37;;;;;;;28.47;21.95;;;;;;;7.47;100.00;99305.19;1777828;78;21388;-61
2021/11/04 03:13:05;;;;;;;27.93;21.15;;;;;;;7.41;100.00;99313.01;1786209;79;20891;-63
2021/11/04 03:15:40;;;;;;;28.52;22.42;;;;;;;7.40;100.00;99323.49;1798954;79;21486;-62
2021/11/04 03:18:09;;;;;;;30.57;23.40;;;;;;;7.41;100.00;99323.51;1799592;78;21419;-63
2021/11/04 03:20:37;;;;;;;27.27;22.50;;;;;;;7.40;100.00;99326.11;1798934;78;20939;-63
2021/11/04 03:23:06;;;;;;;28.52;22.13;;;;;;;7.39;100.00;99325.23;1757553;80;20927;-63
2021/11/04 03:25:34;;;;;;;28.42;21.97;;;;;;;7.35;100.00;99323.45;1795486;78;20911;-62
2021/11/04 03:28:03;;;;;;;28.77;22.32;;;;;;;7.34;100.00;99328.25;1796821;78;21085;-62
2021/11/04 03:30:42;;;;;;;27.27;21.90;;;;;;;7.33;100.00;99322.55;1796237;78;21632;-62
2021/11/04 03:33:17;;;;;;;32.28;23.38;;;;;;;7.34;100.00;99311.20;1796435;80;20875;-63
2021/11/04 03:35:42;;;;;;;27.55;22.82;;;;;;;7.37;100.00;99320.84;1793213;78;20894;-63
2021/11/04 03:38:12;;;;;;;29.67;22.73;;;;;;;7.36;100.00;99311.20;1798092;78;21495;-63
2021/11/04 03:40:41;;;;;;;28.67;22.07;;;;;;;7.34;100.00;99309.88;1795232;78;21093;-63
2021/11/04 03:43:10;;;;;;;28.50;22.10;;;;;;;7.33;100.00;99295.44;1779584;79;20863;-63
2021/11/04 03:45:41;;;;;;;31.62;22.25;;;;;;;7.28;100.00;99298.02;1798724;78;20994;-63
2021/11/04 03:48:09;;;;;;;29.85;22.93;;;;;;;7.18;100.00;99289.19;1796771;78;20923;-62
2021/11/04 03:50:37;;;;;;;27.25;21.35;;;;;;;7.10;100.00;99281.67;1796470;80;20844;-62
2021/11/04 03:53:05;;;;;;;26.55;21.55;;;;;;;7.02;100.00;99275.44;1796779;78;21073;-62
2021/11/04 03:55:35;;;;;;;32.08;22.82;;;;;;;6.99;100.00;99266.23;1796528;78;21418;-63
2021/11/04 03:58:04;;;;;;;29.00;22.58;;;;;;;7.03;100.00;99281.56;1771405;80;20943;-62
2021/11/04 04:00:36;;;;;;;30.90;23.97;;;;;;;7.04;100.00;99289.45;1796801;78;20915;-62
2021/11/04 04:03:04;;;;;;;28.27;21.45;;;;;;;7.08;100.00;99300.42;1796962;78;20836;-63
2021/11/04 04:05:33;;;;;;;28.47;21.75;;;;;;;7.13;100.00;99296.56;1796342;78;21093;-62
2021/11/04 04:08:02;;;;;;;27.58;21.35;;;;;;;7.22;100.00;99301.90;1796406;80;21485;-62
2021/11/04 04:10:34;;;;;;;27.80;21.52;;;;;;;7.27;100.00;99300.20;1737721;81;21553;-62
2021/11/04 04:13:02;;;;;;;30.68;22.35;;;;;;;7.28;100.00;99298.02;1758445;80;20991;-62
2021/11/04 04:15:40;;;;;;;27.75;20.08;;;;;;;7.28;100.00;99300.64;1755246;79;21538;-63
2021/11/04 04:18:08;;;;;;;24.02;18.40;;;;;;;7.31;100.00;99295.42;1766194;80;21380;-62
2021/11/04 04:20:36;;;;;;;28.32;19.40;;;;;;;7.38;100.00;99278.86;1765542;80;20916;-62
2021/11/04 04:23:05;;;;;;;30.68;19.12;;;;;;;7.45;100.00;99283.73;1765851;80;21467;-62
2021/11/04 04:25:35;;;;;;;23.90;18.62;;;;;;;7.49;100.00;99293.39;1767155;81;21459;-63
2021/11/04 04:28:05;;;;;;;24.57;18.35;;;;;;;7.53;100.00;99303.05;1743192;80;21515;-62
2021/11/04 04:30:38;;;;;;;29.17;18.93;;;;;;;7.57;100.00;99294.36;1765469;80;21078;-62
2021/11/04 04:33:09;;;;;;;24.95;18.70;;;;;;;7.62;100.00;99299.66;1766155;81;20979;-62
2021/11/04 04:35:40;;;;;;;22.70;18.60;;;;;;;7.62;100.00;99296.59;1771659;79;20896;-61
2021/11/04 04:38:14;;;;;;;;;;;;;;;7.67;100.00;99290.06;1770743;79;20892;-64
2021/11/04 04:40:41;;;;;;;;;;;;;;;7.69;100.00;99292.27;1770323;80;20465;-62
2021/11/04 04:43:09;;;;;;;25.65;17.55;;;;;;;7.70;100.00;99280.90;1766124;80;20484;-66
2021/11/04 04:45:38;;;;;;;27.82;19.00;;;;;;;7.69;100.00;99280.02;1768427;80;21455;-64
2021/11/04 04:48:05;;;;;;;24.57;18.95;;;;;;;7.68;100.00;99278.69;1768804;79;20932;-64
2021/11/04 04:50:34;;;;;;;24.18;18.82;;;;;;;7.67;100.00;99280.88;1757861;79;21491;-61
2021/11/04 04:53:02;;;;;;;26.65;19.77;;;;;;;7.68;100.00;99286.57;1762206;81;20861;-63
2021/11/04 04:55:29;;;;;;;24.75;19.30;;;;;;;7.68;100.00;99287.88;1764603;79;21083;-63
2021/11/04 04:57:57;;;;;;;26.62;18.02;;;;;;;7.69;100.00;99293.14;1766003;81;20861;-64
2021/11/04 05:00:25;;;;;;;25.65;19.20;;;;;;;7.66;100.00;99284.37;1758325;79;20939;-68
2021/11/04 05:02:53;;;;;;;26.70;19.37;;;;;;;7.61;100.00;99292.21;1763319;79;20955;-63
2021/11/04 05:05:22;;;;;;;24.37;19.27;;;;;;;7.61;100.00;99292.64;1762814;79;20948;-63
2021/11/04 05:07:50;;;;;;;24.25;18.98;;;;;;;7.60;100.00;99299.64;1769915;79;21424;-64
2021/11/04 05:10:20;;;;;;;23.25;17.82;;;;;;;7.58;100.00;99300.06;1768603;79;21519;-64
2021/11/04 05:12:48;;;;;;;22.80;17.92;;;;;;;7.61;100.00;99301.40;1764237;79;20908;-63
2021/11/04 05:15:17;;;;;;;21.35;17.12;;;;;;;7.65;100.00;99297.05;1765779;79;21498;-64
2021/11/04 05:17:45;;;;;;;26.12;18.45;;;;;;;7.68;100.00;99293.13;1765244;79;21576;-64
2021/11/04 05:20:13;;;;;;;29.60;19.50;;;;;;;7.72;100.00;99294.91;1765777;79;21087;-63
2021/11/04 05:22:41;;;;;;;25.12;18.82;;;;;;;7.75;100.00;99297.56;1767313;79;20879;-62
2021/11/04 05:25:09;;;;;;;23.57;18.40;;;;;;;7.77;100.00;99297.14;1768040;79;21518;-63
2021/11/04 05:27:37;;;;;;;22.50;17.87;;;;;;;7.79;100.00;99294.97;1768826;79;20888;-63
2021/11/04 05:30:07;;;;;;;23.75;18.23;;;;;;;7.80;100.00;99286.22;1766150;79;21023;-66
2021/11/04 05:32:35;;;;;;;21.90;17.92;;;;;;;7.80;100.00;99286.66;1768278;80;21463;-65
2021/11/04 05:35:03;;;;;;;23.30;17.75;;;;;;;7.82;100.00;99290.17;1770995;80;20888;-63
2021/11/04 05:37:32;;;;;;;21.00;17.27;;;;;;;7.82;100.00;99286.23;1770919;79;20939;-62
2021/11/04 05:40:00;;;;;;;26.17;18.32;;;;;;;7.81;100.00;99287.98;1771116;81;21435;-63
2021/11/04 05:42:29;;;;;;;23.40;18.80;;;;;;;7.80;100.00;99288.85;1770919;79;21388;-63
2021/11/04 05:44:57;;;;;;;21.80;18.00;;;;;;;7.78;100.00;99294.96;1771129;81;21023;-64
2021/11/04 05:47:26;;;;;;;22.48;17.73;;;;;;;7.77;100.00;99304.58;1770766;80;20876;-63
2021/11/04 05:49:54;;;;;;;23.15;17.70;;;;;;;7.73;100.00;99305.43;1771143;81;20943;-63
2021/11/04 05:52:21;;;;;;;24.27;17.90;;;;;;;7.70;100.00;99313.72;1770808;81;20880;-63
2021/11/04 05:54:50;;;;;;;22.58;18.82;;;;;;;7.70;100.00;99318.97;1771294;81;21411;-63
2021/11/04 05:57:18;;;;;;;21.73;17.40;;;;;;;7.67;100.00;99314.58;1770033;79;21874;-63
2021/11/04 05:59:45;;;;;;;22.40;17.30;;;;;;;7.66;100.00;99327.25;1758741;79;20903;-63
2021/11/04 06:02:13;;;;;;;24.92;17.10;;;;;;;7.67;100.00;99321.56;1741960;80;20927;-64
2021/11/04 06:04:45;;;;;;;21.90;17.77;;;;;;;7.69;100.00;99316.77;1741943;80;21014;-63
2021/11/04 06:07:17;;;;;;;24.12;18.23;;;;;;;7.71;100.00;99321.61;1742230;80;20916;-64
2021/11/04 06:09:45;;;;;;;22.10;17.45;;;;;;;7.72;100.00;99314.17;1742085;81;26117;-64
2021/11/04 06:12:13;;;;;;;22.70;17.00;;;;;;;7.76;100.00;99312.02;1741806;80;20884;-64
2021/11/04 06:14:43;;;;;;;25.85;16.35;;;;;;;7.79;100.00;99321.23;1759513;80;21565;-63
2021/11/04 06:17:10;;;;;;;20.43;16.17;;;;;;;7.84;100.00;99326.52;1765181;81;20911;-63
2021/11/04 06:19:40;;;;;;;24.52;17.65;;;;;;;7.88;100.00;99325.67;1765517;79;20851;-63
2021/11/04 06:22:07;;;;;;;19.70;16.25;;;;;;;7.88;100.00;99335.74;1765263;79;21105;-62
2021/11/04 06:24:36;;;;;;;21.73;15.88;;;;;;;7.92;100.00;99334.45;1765448;79;20903;-63
2021/11/04 06:27:05;;;;;;;20.40;16.67;;;;;;;7.97;100.00;99337.98;1765182;79;21423;-63
2021/11/04 06:29:33;;;;;;;29.65;16.77;;;;;;;8.04;100.00;99347.67;1770079;78;21438;-63
2021/11/04 06:32:01;;;;;;;23.02;17.27;;;;;;;8.08;100.00;99351.68;1779039;78;20884;-63
2021/11/04 06:34:29;;;;;;;22.52;17.77;;;;;;;8.12;100.00;99344.27;1770055;79;21091;-63
2021/11/04 06:36:57;;;;;;;23.85;19.17;;;;;;;8.16;100.00;99342.53;1778943;80;21430;-64
2021/11/04 06:39:25;;;;;;;21.68;18.00;;;;;;;8.17;100.00;99349.11;1765379;80;20944;-64
2021/11/04 06:41:53;;;;;;;29.05;19.35;;;;;;;8.17;100.00;99349.11;1765116;81;20966;-63
2021/11/04 06:44:20;;;;;;;24.52;18.77;;;;;;;8.21;100.00;99353.95;1765417;79;20859;-63
2021/11/04 06:46:50;;;;;;;24.77;18.62;;;;;;;8.23;100.00;99352.65;1765061;79;21052;-63
2021/11/04 06:49:18;;;;;;;23.35;17.12;;;;;;;8.23;100.00;99349.59;1765307;79;20934;-63
2021/11/04 06:51:48;;;;;;;23.87;18.05;;;;;;;8.24;100.00;99353.97;1775556;78;20927;-63
2021/11/04 06:54:15;;;;;;;24.52;19.85;;;;;;;8.26;100.00;99350.04;1772353;79;21038;-63
2021/11/04 06:56:45;;;;;;;22.82;18.32;;;;;;;8.30;100.00;99355.76;1765139;81;21471;-63
2021/11/04 06:59:21;;;;;;;19.98;17.07;;;;;;;8.34;100.00;99358.45;1765351;79;21050;-63
2021/11/04 07:01:58;;;;;;;20.32;17.25;;;;;;;8.39;100.00;99359.78;1765040;81;20879;-63
2021/11/04 07:04:30;;;;;;;42.58;19.15;;;;;;;8.47;100.00;99355.45;1764751;81;20899;-63
2021/11/04 07:07:07;;;;;;;24.50;19.37;;;;;;;8.49;100.00;99353.28;1765162;79;20991;-64
2021/11/04 07:09:35;;;;;;;21.45;18.23;;;;;;;8.50;100.00;99347.58;1765269;81;20983;-63
2021/11/04 07:12:07;;;;;;;30.92;17.37;;;;;;;8.53;100.00;99345.00;1767513;78;21427;-63
2021/11/04 07:14:36;;;;;;;21.00;17.07;;;;;;;8.61;100.00;99343.72;1791845;78;21415;-63
2021/11/04 07:17:04;;;;;;;24.15;16.80;;;;;;;8.67;100.00;99331.48;1788234;80;21451;-63
2021/11/04 07:19:33;;;;;;;24.80;17.17;;;;;;;8.77;100.00;99337.22;1788066;78;20852;-62
2021/11/04 07:22:25;;;;;;;19.55;15.98;;;;;;;8.85;100.00;99337.25;1787986;78;20887;-64
2021/11/04 07:25:11;;;;;;;26.07;17.12;;;;;;;8.95;100.00;99327.64;1783918;78;21778;-62
2021/11/04 07:28:06;;;;;;;21.07;16.85;;;;;;;9.09;100.00;99339.11;1786351;78;21434;-63
2021/11/04 07:30:34;;;;;;;20.37;16.48;;;;;;;9.22;100.00;99338.70;1785145;78;21446;-62
2021/11/04 07:33:04;;;;;;;26.52;16.90;;;;;;;9.32;100.00;99338.72;1788041;78;20898;-63
2021/11/04 07:35:36;;;;;;;19.45;15.78;;;;;;;9.45;100.00;99334.35;1784551;78;21458;-63
2021/11/04 07:38:07;;;;;;;20.68;17.02;;;;;;;9.58;100.00;99335.27;1787686;78;21771;-64
2021/11/04 07:40:34;;;;;;;32.17;18.20;;;;;;;9.70;100.00;99328.25;1788011;78;21468;-63
2021/11/04 07:43:01;;;;;;;24.87;17.98;;;;;;;9.81;100.00;99333.96;1788328;78;20876;-62
2021/11/04 07:45:30;;;;;;;22.93;17.73;;;;;;;9.91;100.00;99333.95;1784154;79;20935;-64
2021/11/04 07:47:57;;;;;;;25.97;18.30;;;;;;;10.01;100.00;99325.19;1788734;80;20884;-62
2021/11/04 07:50:28;;;;;;;23.00;17.12;;;;;;;10.15;100.00;99324.30;1788372;78;21134;-63
2021/11/04 07:52:57;;;;;;;24.05;18.02;;;;;;;10.29;100.00;99314.63;1788750;79;24609;-62
2021/11/04 07:55:24;;;;;;;21.23;18.12;;;;;;;10.43;100.00;99307.59;1788398;78;20975;-63
2021/11/04 07:57:52;;;;;;;23.87;17.40;;;;;;;10.55;100.00;99300.95;1788630;78;20922;-61
2021/11/04 08:00:22;;;;;;;20.17;17.20;;;;;;;10.70;100.00;99309.25;1779274;78;21608;-63
2021/11/04 08:02:49;;;;;;;24.37;19.40;;;;;;;10.87;100.00;99323.24;1765427;79;22119;-63
2021/11/04 08:05:17;;;;;;;22.50;18.17;;;;;;;11.01;100.00;99313.97;1757253;80;20908;-63
2021/11/04 08:10:20;;;;;;;23.32;19.87;;;;;;;11.16;100.00;99291.87;1824203;78;23199;-63
2021/11/04 08:12:47;;;;;;;22.40;18.05;;;;;;;11.15;100.00;99295.41;1785707;79;20829;-62
2021/11/04 08:15:17;;;;;;;21.87;18.25;;;;;;;11.19;100.00;99290.09;1785619;79;20864;-62
2021/11/04 08:17:45;;;;;;;21.48;18.42;;;;;;;11.25;100.00;99285.22;1785930;79;20932;-62
2021/11/04 08:20:12;;;;;;;24.10;19.37;;;;;;;11.34;100.00;99289.11;1785658;79;20892;-62
2021/11/04 08:22:40;;;;;;;28.07;20.02;;;;;;;11.46;100.00;99296.11;1785555;79;20896;-62
2021/11/04 08:25:08;;;;;;;24.72;19.02;;;;;;;11.56;100.00;99296.02;1785652;79;20860;-63
2021/11/04 08:27:37;;;;;;;25.57;19.32;;;;;;;11.62;100.00;99294.66;1785692;79;21801;-62
2021/11/04 08:30:06;;;;;;;24.82;19.00;;;;;;;11.74;100.00;99292.80;1785459;79;20915;-63
2021/11/04 08:32:33;;;;;;;22.13;19.05;;;;;;;11.83;100.00;99287.49;1777150;79;20942;-64
2021/11/04 08:35:04;;;;;;;34.08;20.40;;;;;;;11.89;100.00;99276.86;1768353;79;20872;-62
2021/11/04 08:37:32;;;;;;;22.10;19.15;;;;;;;11.94;100.00;99269.77;1754844;81;21466;-62
2021/11/04 08:40:00;;;;;;;28.32;20.08;;;;;;;11.98;100.00;99270.16;1754480;80;21421;-63
2021/11/04 08:42:27;;;;;;;26.73;20.50;;;;;;;12.01;100.00;99260.88;1754459;80;20908;-63
2021/11/04 08:44:59;;;;;;;23.60;18.90;;;;;;;12.06;100.00;99266.12;1754513;81;21573;-62
2021/11/04 08:47:28;;;;;;;27.02;20.10;;;;;;;12.18;100.00;99251.45;1754861;80;20959;-63
2021/11/04 08:50:00;;;;;;;23.90;19.48;;;;;;;12.39;100.00;99253.87;1754510;80;21557;-63
2021/11/04 08:52:29;;;;;;;25.88;20.02;;;;;;;12.55;100.00;99241.34;1754509;80;21155;-63
2021/11/04 08:54:57;;;;;;;26.87;20.80;;;;;;;12.73;100.00;99241.09;1754454;81;20939;-63
2021/11/04 08:57:25;;;;;;;27.90;21.57;;;;;;;12.85;100.00;99238.31;1754517;81;21666;-63
2021/11/04 08:59:53;;;;;;;28.30;21.23;;;;;;;12.96;100.00;99217.42;1754566;80;20919;-64
2021/11/04 09:02:23;;;;;;;23.30;19.60;;;;;;;13.04;100.00;99213.77;1759232;79;21470;-63
2021/11/04 09:04:50;;;;;;;22.82;18.10;;;;;;;13.09;100.00;99218.98;1768140;80;22300;-64
2021/11/04 09:07:20;;;;;;;25.27;20.62;;;;;;;13.16;100.00;99210.92;1760717;79;21521;-63
2021/11/04 09:09:48;;;;;;;24.67;19.50;;;;;;;13.30;100.00;99221.81;1778950;78;20923;-63
2021/11/04 09:12:16;;;;;;;26.75;18.98;;;;;;;13.41;100.00;99206.63;1770897;80;20872;-63
2021/11/04 09:14:44;;;;;;;27.48;19.65;;;;;;;13.51;100.00;99210.41;1760073;80;21478;-64
2021/11/04 09:17:12;;;;;;;23.73;19.25;;;;;;;13.62;100.00;99199.63;1757644;80;21177;-64
2021/11/04 09:19:41;;;;;;;31.55;19.42;;;;;;;13.75;100.00;99193.69;1757649;80;21406;-64
2021/11/04 09:22:09;;;;;;;25.00;19.70;;;;;;;13.86;100.00;99175.34;1757041;80;20940;-64
2021/11/04 09:24:38;;;;;;;23.50;19.50;;;;;;;14.02;100.00;99173.72;1768283;80;21782;-65
2021/11/04 09:27:08;;;;;;;25.77;19.23;;;;;;;14.18;100.00;99168.53;1781431;78;20922;-63
2021/11/04 09:29:38;;;;;;;42.50;18.85;;;;;;;14.36;100.00;99160.67;1784085;79;21535;-65
2021/11/04 09:32:08;;;;;;;25.20;17.30;;;;;;;14.52;100.00;99167.42;1783984;79;21474;-64
2021/11/04 09:34:37;;;;;;;31.10;15.63;;;;;;;14.66;100.00;99181.30;1787986;78;20934;-64
2021/11/04 09:37:06;;;;;;;20.45;16.35;;;;;;;14.78;100.00;99173.06;1775434;78;20916;-63
2021/11/04 09:39:35;;;;;;;24.70;17.07;;;;;;;14.90;100.00;99152.44;1784919;78;20944;-63
2021/11/04 09:42:04;;;;;;;28.95;17.20;;;;;;;15.00;100.00;99165.92;1777507;78;21163;-62
2021/11/04 09:44:32;;;;;;;23.15;15.85;;;;;;;15.06;100.00;99156.47;1781452;78;21498;-63
2021/11/04 09:47:00;;;;;;;26.75;16.85;;;;;;;15.14;100.00;99149.67;1784102;78;21029;-63
2021/11/04 09:49:29;;;;;;;20.40;15.70;;;;;;;15.24;100.00;99145.42;1787701;79;20896;-63
2021/11/04 09:51:58;;;;;;;18.48;15.75;;;;;;;15.33;100.00;99148.30;1784103;78;21399;-63
2021/11/04 09:54:26;;;;;;;19.55;15.70;;;;;;;15.44;100.00;99137.81;1783642;78;21120;-63
2021/11/04 09:56:55;;;;;;;51.73;18.05;;;;;;;15.57;100.00;99127.73;1783214;79;20954;-63
2021/11/04 09:59:23;;;;;;;29.12;15.30;;;;;;;15.68;100.00;99138.14;1786990;78;20988;-64
2021/11/04 10:01:56;;;;;;;18.80;14.38;;;;;;;15.73;100.00;99133.11;1785171;79;20951;-63
2021/11/04 10:04:37;;;;;;;72.58;16.05;;;;;;;15.77;100.00;99131.70;1795580;79;21109;-65
2021/11/04 10:07:07;;;;;;;24.37;13.98;;;;;;;15.80;100.00;99128.50;1795082;79;21111;-63
2021/11/04 10:09:34;;;;;;;35.00;14.75;;;;;;;15.86;100.00;99135.44;1787423;78;21019;-63
2021/11/04 10:12:12;;;;;;;21.73;13.55;;;;;;;15.87;100.00;99125.21;1772169;80;20999;-63
2021/11/04 10:14:41;;;;;;;28.35;13.58;;;;;;;15.89;100.00;99128.24;1772762;80;21502;-63
2021/11/04 10:17:37;;;;;;;16.45;12.30;;;;;;;15.94;100.00;99118.80;1764345;81;20837;-64
2021/11/04 10:20:00;;;;;;;21.87;13.70;;;;;;;15.97;100.00;99107.61;1743462;81;21154;-63
2021/11/04 10:22:28;;;;;;;16.55;11.83;;;;;;;16.04;100.00;99099.00;1707661;80;20888;-63
2021/11/04 10:24:56;;;;;;;17.05;11.60;;;;;;;16.08;100.00;99104.64;1760384;81;20926;-63
2021/11/04 10:27:35;;;;;;;14.78;12.65;;;;;;;16.11;100.00;99100.59;1753725;80;20936;-63
2021/11/04 10:30:12;;;;;;;15.18;12.65;;;;;;;16.18;100.00;99097.29;1761042;81;21454;-64
2021/11/04 10:32:52;;;;;;;13.85;12.45;;;;;;;16.30;100.00;99099.59;1768320;79;21502;-64
2021/11/04 10:35:20;;;;;;;20.62;13.65;;;;;;;16.43;100.00;99107.61;1767841;79;20978;-63
2021/11/04 10:37:51;;;;;;;22.35;13.15;;;;;;;16.47;100.00;99103.94;1740409;80;20972;-64
2021/11/04 10:40:19;;;;;;;43.63;14.38;;;;;;;16.47;100.00;99105.27;1760727;81;21396;-64
2021/11/04 10:42:55;;;;;;;18.45;12.88;;;;;;;16.42;100.00;99104.53;1774076;79;20979;-64
2021/11/04 10:45:25;;;;;;;14.53;12.93;;;;;;;16.36;100.00;99110.05;1774098;81;21130;-64
2021/11/04 10:48:21;;;;;;;14.93;13.32;;;;;;;16.33;100.00;99101.70;1774395;79;20967;-65
2021/11/04 10:50:49;;;;;;;15.63;12.98;;;;;;;16.27;100.00;99103.22;1774173;81;20884;-64
2021/11/04 10:53:24;;;;;;;16.37;13.10;;;;;;;16.27;100.00;99103.22;1774068;79;20837;-65
2021/11/04 10:55:56;;;;;;;18.12;14.10;;;;;;;16.20;100.00;99098.98;1774275;79;20930;-65
2021/11/04 10:58:32;;;;;;;20.30;14.60;;;;;;;16.06;100.00;99089.18;1772331;79;21126;-65
2021/11/04 11:00:59;;;;;;;21.87;14.18;;;;;;;15.99;100.00;99091.61;1765060;79;20833;-64
2021/11/04 11:03:30;;;;;;;15.15;13.50;;;;;;;16.00;100.00;99096.88;1754816;81;20840;-65
2021/11/04 11:06:00;;;;;;;22.80;13.62;;;;;;;16.00;100.00;99089.36;1743356;81;22019;-65
2021/11/04 11:08:29;;;;;;;35.58;13.78;;;;;;;16.01;100.00;99093.77;1743231;81;20947;-65
2021/11/04 11:10:57;;;;;;;25.65;14.30;;;;;;;15.95;100.00;99089.95;1757436;80;21180;-64
2021/11/04 11:13:25;;;;;;;19.10;14.53;;;;;;;15.91;100.00;99084.30;1759450;80;20978;-65
2021/11/04 11:15:58;;;;;;;18.77;15.10;;;;;;;15.81;100.00;99100.98;1759471;80;20927;-64
2021/11/04 11:18:28;;;;;;;35.20;13.78;;;;;;;15.66;100.00;99100.95;1759528;80;20979;-64
2021/11/04 11:20:57;;;;;;;21.50;15.38;;;;;;;15.57;100.00;99097.15;1759615;80;20973;-63
2021/11/04 11:23:28;;;;;;;22.13;16.45;;;;;;;15.48;100.00;99092.08;1759439;80;21158;-65
2021/11/04 11:26:00;;;;;;;28.15;16.40;;;;;;;15.44;100.00;99083.31;1759481;80;20927;-65
2021/11/04 11:28:35;;;;;;;16.82;13.80;;;;;;;15.42;100.00;99081.62;1759886;80;20926;-64
2021/11/04 11:31:15;;;;;;;20.92;13.58;;;;;;;15.34;100.00;99087.59;1763956;80;20986;-64